sensor_id;sensor_type;location;lat;lon;timestamp;P1;durP1;ratioP1;P2;durP2;ratioP2
30515;SDS011;17297;54.022;10.760;2023-05-21T00:00:04;8.18;;;2.90;;
30515;SDS011;17297;54.022;10.760;2023-05-21T00:02:39;9.77;;;3.83;;
30515;SDS011;17297;54.022;10.760;2023-05-21T00:05:05;5.30;;;3.20;;
30515;SDS011;17297;54.022;10.760;2023-05-21T00:07:35;7.53;;;2.78;;
30515;SDS011;17297;54.022;10.760;2023-05-21T00:10:00;9.45;;;3.05;;
30515;SDS011;17297;54.022;10.760;2023-05-21T00:12:26;7.43;;;2.83;;
30515;SDS011;17297;54.022;10.760;2023-05-21T00:14:51;5.22;;;2.55;;
30515;SDS011;17297;54.022;10.760;2023-05-21T00:17:16;4.82;;;2.50;;
30515;SDS011;17297;54.022;10.760;2023-05-21T00:19:42;4.90;;;2.60;;
30515;SDS011;17297;54.022;10.760;2023-05-21T00:22:07;7.75;;;3.20;;
30515;SDS011;17297;54.022;10.760;2023-05-21T00:24:33;6.70;;;2.92;;
30515;SDS011;17297;54.022;10.760;2023-05-21T00:26:58;4.88;;;2.60;;
30515;SDS011;17297;54.022;10.760;2023-05-21T00:29:23;7.82;;;3.00;;
30515;SDS011;17297;54.022;10.760;2023-05-21T00:31:50;6.57;;;2.70;;
30515;SDS011;17297;54.022;10.760;2023-05-21T00:34:16;8.57;;;4.13;;
30515;SDS011;17297;54.022;10.760;2023-05-21T00:36:41;4.60;;;2.45;;
30515;SDS011;17297;54.022;10.760;2023-05-21T00:39:12;8.70;;;3.05;;
30515;SDS011;17297;54.022;10.760;2023-05-21T00:41:37;9.07;;;3.20;;
30515;SDS011;17297;54.022;10.760;2023-05-21T00:44:07;7.15;;;2.88;;
30515;SDS011;17297;54.022;10.760;2023-05-21T00:46:32;9.55;;;2.95;;
30515;SDS011;17297;54.022;10.760;2023-05-21T00:48:58;8.30;;;4.55;;
30515;SDS011;17297;54.022;10.760;2023-05-21T00:51:24;7.78;;;2.65;;
30515;SDS011;17297;54.022;10.760;2023-05-21T00:53:54;7.90;;;3.15;;
30515;SDS011;17297;54.022;10.760;2023-05-21T00:56:20;6.28;;;3.47;;
30515;SDS011;17297;54.022;10.760;2023-05-21T00:58:47;8.70;;;2.75;;
30515;SDS011;17297;54.022;10.760;2023-05-21T01:01:13;5.10;;;2.95;;
30515;SDS011;17297;54.022;10.760;2023-05-21T01:03:40;8.35;;;2.72;;
30515;SDS011;17297;54.022;10.760;2023-05-21T01:06:06;5.00;;;2.85;;
30515;SDS011;17297;54.022;10.760;2023-05-21T01:08:33;8.43;;;3.22;;
30515;SDS011;17297;54.022;10.760;2023-05-21T01:11:02;6.97;;;2.78;;
30515;SDS011;17297;54.022;10.760;2023-05-21T01:13:28;12.40;;;3.63;;
30515;SDS011;17297;54.022;10.760;2023-05-21T01:15:55;9.70;;;3.65;;
30515;SDS011;17297;54.022;10.760;2023-05-21T01:18:23;8.35;;;3.53;;
30515;SDS011;17297;54.022;10.760;2023-05-21T01:20:49;6.22;;;3.42;;
30515;SDS011;17297;54.022;10.760;2023-05-21T01:23:15;9.88;;;2.95;;
30515;SDS011;17297;54.022;10.760;2023-05-21T01:25:41;12.63;;;3.85;;
30515;SDS011;17297;54.022;10.760;2023-05-21T01:28:09;7.80;;;3.67;;
30515;SDS011;17297;54.022;10.760;2023-05-21T01:30:34;8.52;;;3.42;;
30515;SDS011;17297;54.022;10.760;2023-05-21T01:33:02;10.93;;;3.85;;
30515;SDS011;17297;54.022;10.760;2023-05-21T01:35:34;10.23;;;3.05;;
30515;SDS011;17297;54.022;10.760;2023-05-21T01:43:22;10.10;;;3.80;;
30515;SDS011;17297;54.022;10.760;2023-05-21T01:45:51;5.78;;;2.85;;
30515;SDS011;17297;54.022;10.760;2023-05-21T01:48:18;8.02;;;3.13;;
30515;SDS011;17297;54.022;10.760;2023-05-21T01:50:44;6.30;;;3.15;;
30515;SDS011;17297;54.022;10.760;2023-05-21T01:53:11;8.77;;;4.32;;
30515;SDS011;17297;54.022;10.760;2023-05-21T01:55:37;9.95;;;3.63;;
30515;SDS011;17297;54.022;10.760;2023-05-21T01:58:06;10.27;;;4.07;;
30515;SDS011;17297;54.022;10.760;2023-05-21T02:00:32;7.03;;;3.97;;
30515;SDS011;17297;54.022;10.760;2023-05-21T02:02:58;10.07;;;3.60;;
30515;SDS011;17297;54.022;10.760;2023-05-21T02:05:24;6.28;;;3.15;;
30515;SDS011;17297;54.022;10.760;2023-05-21T02:07:49;6.85;;;2.88;;
30515;SDS011;17297;54.022;10.760;2023-05-21T02:10:16;7.97;;;3.28;;
30515;SDS011;17297;54.022;10.760;2023-05-21T02:12:41;5.60;;;3.92;;
30515;SDS011;17297;54.022;10.760;2023-05-21T02:15:07;6.45;;;3.03;;
30515;SDS011;17297;54.022;10.760;2023-05-21T02:17:33;9.07;;;3.83;;
30515;SDS011;17297;54.022;10.760;2023-05-21T02:20:00;7.40;;;3.55;;
30515;SDS011;17297;54.022;10.760;2023-05-21T02:22:35;8.70;;;3.97;;
30515;SDS011;17297;54.022;10.760;2023-05-21T02:25:04;8.32;;;3.63;;
30515;SDS011;17297;54.022;10.760;2023-05-21T02:27:31;5.82;;;3.22;;
30515;SDS011;17297;54.022;10.760;2023-05-21T02:29:59;5.95;;;2.97;;
30515;SDS011;17297;54.022;10.760;2023-05-21T02:32:24;7.75;;;3.15;;
30515;SDS011;17297;54.022;10.760;2023-05-21T02:34:50;7.00;;;3.80;;
30515;SDS011;17297;54.022;10.760;2023-05-21T02:37:15;7.18;;;3.25;;
30515;SDS011;17297;54.022;10.760;2023-05-21T02:39:41;8.95;;;3.10;;
30515;SDS011;17297;54.022;10.760;2023-05-21T02:42:07;9.55;;;3.08;;
30515;SDS011;17297;54.022;10.760;2023-05-21T02:44:33;8.60;;;3.42;;
30515;SDS011;17297;54.022;10.760;2023-05-21T02:46:58;5.10;;;3.20;;
30515;SDS011;17297;54.022;10.760;2023-05-21T02:49:23;8.38;;;3.97;;
30515;SDS011;17297;54.022;10.760;2023-05-21T02:51:49;5.78;;;3.78;;
30515;SDS011;17297;54.022;10.760;2023-05-21T02:54:14;8.82;;;3.15;;
30515;SDS011;17297;54.022;10.760;2023-05-21T02:56:40;5.72;;;3.28;;
30515;SDS011;17297;54.022;10.760;2023-05-21T02:59:05;8.95;;;3.58;;
30515;SDS011;17297;54.022;10.760;2023-05-21T03:01:30;8.98;;;4.28;;
30515;SDS011;17297;54.022;10.760;2023-05-21T03:03:56;4.50;;;2.92;;
30515;SDS011;17297;54.022;10.760;2023-05-21T03:06:23;8.55;;;3.78;;
30515;SDS011;17297;54.022;10.760;2023-05-21T03:08:48;6.80;;;3.08;;
30515;SDS011;17297;54.022;10.760;2023-05-21T03:11:13;10.07;;;3.55;;
30515;SDS011;17297;54.022;10.760;2023-05-21T03:13:40;7.65;;;4.20;;
30515;SDS011;17297;54.022;10.760;2023-05-21T03:16:06;5.38;;;3.22;;
30515;SDS011;17297;54.022;10.760;2023-05-21T03:18:32;9.57;;;3.83;;
30515;SDS011;17297;54.022;10.760;2023-05-21T03:20:57;9.07;;;4.60;;
30515;SDS011;17297;54.022;10.760;2023-05-21T03:23:23;8.40;;;3.40;;
30515;SDS011;17297;54.022;10.760;2023-05-21T03:25:48;6.60;;;3.30;;
30515;SDS011;17297;54.022;10.760;2023-05-21T03:28:14;10.60;;;5.13;;
30515;SDS011;17297;54.022;10.760;2023-05-21T03:30:46;8.82;;;4.95;;
30515;SDS011;17297;54.022;10.760;2023-05-21T03:33:33;9.57;;;4.55;;
30515;SDS011;17297;54.022;10.760;2023-05-21T03:36:02;6.50;;;3.78;;
30515;SDS011;17297;54.022;10.760;2023-05-21T03:38:31;10.32;;;4.32;;
30515;SDS011;17297;54.022;10.760;2023-05-21T03:40:56;10.82;;;3.80;;
30515;SDS011;17297;54.022;10.760;2023-05-21T03:43:22;6.97;;;3.47;;
30515;SDS011;17297;54.022;10.760;2023-05-21T03:45:48;8.55;;;3.58;;
30515;SDS011;17297;54.022;10.760;2023-05-21T03:48:36;8.57;;;3.53;;
30515;SDS011;17297;54.022;10.760;2023-05-21T03:51:02;5.88;;;3.30;;
30515;SDS011;17297;54.022;10.760;2023-05-21T03:53:28;6.65;;;3.25;;
30515;SDS011;17297;54.022;10.760;2023-05-21T03:55:53;7.38;;;3.55;;
30515;SDS011;17297;54.022;10.760;2023-05-21T03:58:21;12.30;;;4.22;;
30515;SDS011;17297;54.022;10.760;2023-05-21T04:00:47;4.68;;;3.53;;
30515;SDS011;17297;54.022;10.760;2023-05-21T04:03:13;12.77;;;4.63;;
30515;SDS011;17297;54.022;10.760;2023-05-21T04:05:40;5.97;;;3.60;;
30515;SDS011;17297;54.022;10.760;2023-05-21T04:08:06;7.38;;;4.60;;
30515;SDS011;17297;54.022;10.760;2023-05-21T04:10:32;7.72;;;3.28;;
30515;SDS011;17297;54.022;10.760;2023-05-21T04:12:58;5.38;;;3.33;;
30515;SDS011;17297;54.022;10.760;2023-05-21T04:15:24;8.27;;;2.85;;
30515;SDS011;17297;54.022;10.760;2023-05-21T04:17:51;6.95;;;3.33;;
30515;SDS011;17297;54.022;10.760;2023-05-21T04:20:17;8.77;;;3.50;;
30515;SDS011;17297;54.022;10.760;2023-05-21T04:22:43;6.65;;;3.03;;
30515;SDS011;17297;54.022;10.760;2023-05-21T04:25:09;6.25;;;3.22;;
30515;SDS011;17297;54.022;10.760;2023-05-21T04:27:36;7.97;;;3.55;;
30515;SDS011;17297;54.022;10.760;2023-05-21T04:30:02;8.85;;;3.60;;
30515;SDS011;17297;54.022;10.760;2023-05-21T04:32:29;8.60;;;3.72;;
30515;SDS011;17297;54.022;10.760;2023-05-21T04:34:55;22.42;;;4.47;;
30515;SDS011;17297;54.022;10.760;2023-05-21T04:37:21;7.00;;;3.42;;
30515;SDS011;17297;54.022;10.760;2023-05-21T04:39:49;9.15;;;3.97;;
30515;SDS011;17297;54.022;10.760;2023-05-21T04:42:15;7.97;;;3.42;;
30515;SDS011;17297;54.022;10.760;2023-05-21T04:44:43;6.55;;;3.50;;
30515;SDS011;17297;54.022;10.760;2023-05-21T04:47:09;7.07;;;3.17;;
30515;SDS011;17297;54.022;10.760;2023-05-21T04:49:37;5.20;;;3.65;;
30515;SDS011;17297;54.022;10.760;2023-05-21T04:52:02;6.97;;;3.75;;
30515;SDS011;17297;54.022;10.760;2023-05-21T04:54:27;7.18;;;3.42;;
30515;SDS011;17297;54.022;10.760;2023-05-21T04:56:53;7.40;;;3.05;;
30515;SDS011;17297;54.022;10.760;2023-05-21T04:59:19;7.45;;;3.92;;
30515;SDS011;17297;54.022;10.760;2023-05-21T05:01:45;5.75;;;3.75;;
30515;SDS011;17297;54.022;10.760;2023-05-21T05:04:11;7.88;;;3.45;;
30515;SDS011;17297;54.022;10.760;2023-05-21T05:06:36;9.65;;;4.10;;
30515;SDS011;17297;54.022;10.760;2023-05-21T05:09:02;6.43;;;3.03;;
30515;SDS011;17297;54.022;10.760;2023-05-21T05:11:29;9.77;;;4.22;;
30515;SDS011;17297;54.022;10.760;2023-05-21T05:13:54;5.05;;;3.50;;
30515;SDS011;17297;54.022;10.760;2023-05-21T05:16:20;5.97;;;3.47;;
30515;SDS011;17297;54.022;10.760;2023-05-21T05:18:50;6.30;;;3.25;;
30515;SDS011;17297;54.022;10.760;2023-05-21T05:21:16;12.57;;;3.50;;
30515;SDS011;17297;54.022;10.760;2023-05-21T05:23:42;5.05;;;3.28;;
30515;SDS011;17297;54.022;10.760;2023-05-21T05:26:07;9.15;;;3.58;;
30515;SDS011;17297;54.022;10.760;2023-05-21T05:28:34;6.20;;;2.97;;
30515;SDS011;17297;54.022;10.760;2023-05-21T05:31:00;5.50;;;4.38;;
30515;SDS011;17297;54.022;10.760;2023-05-21T05:33:25;8.60;;;4.22;;
30515;SDS011;17297;54.022;10.760;2023-05-21T05:35:51;6.03;;;3.50;;
30515;SDS011;17297;54.022;10.760;2023-05-21T05:38:17;9.32;;;4.07;;
30515;SDS011;17297;54.022;10.760;2023-05-21T05:40:42;8.80;;;3.08;;
30515;SDS011;17297;54.022;10.760;2023-05-21T05:43:08;18.80;;;4.30;;
30515;SDS011;17297;54.022;10.760;2023-05-21T05:45:33;6.53;;;3.67;;
30515;SDS011;17297;54.022;10.760;2023-05-21T05:48:00;8.40;;;4.40;;
30515;SDS011;17297;54.022;10.760;2023-05-21T05:50:25;8.35;;;3.75;;
30515;SDS011;17297;54.022;10.760;2023-05-21T05:52:51;13.95;;;4.25;;
30515;SDS011;17297;54.022;10.760;2023-05-21T05:55:16;9.65;;;3.72;;
30515;SDS011;17297;54.022;10.760;2023-05-21T05:57:42;5.45;;;3.55;;
30515;SDS011;17297;54.022;10.760;2023-05-21T06:00:11;6.80;;;4.10;;
30515;SDS011;17297;54.022;10.760;2023-05-21T06:02:37;9.93;;;5.03;;
30515;SDS011;17297;54.022;10.760;2023-05-21T06:05:03;6.43;;;3.20;;
30515;SDS011;17297;54.022;10.760;2023-05-21T06:07:31;6.30;;;3.60;;
30515;SDS011;17297;54.022;10.760;2023-05-21T06:09:56;6.53;;;3.28;;
30515;SDS011;17297;54.022;10.760;2023-05-21T06:12:22;9.40;;;5.22;;
30515;SDS011;17297;54.022;10.760;2023-05-21T06:14:47;4.03;;;3.55;;
30515;SDS011;17297;54.022;10.760;2023-05-21T06:17:13;8.52;;;3.55;;
30515;SDS011;17297;54.022;10.760;2023-05-21T06:19:40;8.95;;;4.18;;
30515;SDS011;17297;54.022;10.760;2023-05-21T06:22:05;7.05;;;4.03;;
30515;SDS011;17297;54.022;10.760;2023-05-21T06:24:31;9.68;;;4.55;;
30515;SDS011;17297;54.022;10.760;2023-05-21T06:26:56;8.75;;;4.32;;
30515;SDS011;17297;54.022;10.760;2023-05-21T06:29:22;5.47;;;2.95;;
30515;SDS011;17297;54.022;10.760;2023-05-21T06:31:47;9.75;;;4.00;;
30515;SDS011;17297;54.022;10.760;2023-05-21T06:34:13;8.50;;;4.38;;
30515;SDS011;17297;54.022;10.760;2023-05-21T06:36:38;12.93;;;3.95;;
30515;SDS011;17297;54.022;10.760;2023-05-21T06:39:04;8.43;;;3.83;;
30515;SDS011;17297;54.022;10.760;2023-05-21T06:41:29;8.68;;;3.42;;
30515;SDS011;17297;54.022;10.760;2023-05-21T06:43:57;5.72;;;3.00;;
30515;SDS011;17297;54.022;10.760;2023-05-21T06:46:41;5.75;;;3.42;;
30515;SDS011;17297;54.022;10.760;2023-05-21T06:49:07;5.68;;;4.65;;
30515;SDS011;17297;54.022;10.760;2023-05-21T06:51:33;6.47;;;3.78;;
30515;SDS011;17297;54.022;10.760;2023-05-21T06:53:59;6.40;;;2.97;;
30515;SDS011;17297;54.022;10.760;2023-05-21T06:56:24;6.20;;;3.85;;
30515;SDS011;17297;54.022;10.760;2023-05-21T06:58:52;7.00;;;3.60;;
30515;SDS011;17297;54.022;10.760;2023-05-21T07:01:19;10.38;;;3.83;;
30515;SDS011;17297;54.022;10.760;2023-05-21T07:03:46;7.88;;;3.83;;
30515;SDS011;17297;54.022;10.760;2023-05-21T07:06:12;11.18;;;6.00;;
30515;SDS011;17297;54.022;10.760;2023-05-21T07:08:37;8.95;;;3.63;;
30515;SDS011;17297;54.022;10.760;2023-05-21T07:11:03;10.52;;;4.47;;
30515;SDS011;17297;54.022;10.760;2023-05-21T07:13:28;7.93;;;3.95;;
30515;SDS011;17297;54.022;10.760;2023-05-21T07:15:55;7.72;;;3.85;;
30515;SDS011;17297;54.022;10.760;2023-05-21T07:18:23;8.23;;;4.38;;
30515;SDS011;17297;54.022;10.760;2023-05-21T07:20:48;10.07;;;4.88;;
30515;SDS011;17297;54.022;10.760;2023-05-21T07:23:14;7.60;;;3.97;;
30515;SDS011;17297;54.022;10.760;2023-05-21T07:25:40;6.28;;;4.03;;
30515;SDS011;17297;54.022;10.760;2023-05-21T07:28:05;6.85;;;3.75;;
30515;SDS011;17297;54.022;10.760;2023-05-21T07:30:31;7.35;;;4.63;;
30515;SDS011;17297;54.022;10.760;2023-05-21T07:32:57;7.28;;;4.07;;
30515;SDS011;17297;54.022;10.760;2023-05-21T07:35:22;6.43;;;4.40;;
30515;SDS011;17297;54.022;10.760;2023-05-21T07:37:49;7.43;;;4.25;;
30515;SDS011;17297;54.022;10.760;2023-05-21T07:40:14;10.02;;;4.45;;
30515;SDS011;17297;54.022;10.760;2023-05-21T07:42:41;7.55;;;3.88;;
30515;SDS011;17297;54.022;10.760;2023-05-21T07:45:06;10.07;;;4.38;;
30515;SDS011;17297;54.022;10.760;2023-05-21T07:47:37;10.95;;;5.40;;
30515;SDS011;17297;54.022;10.760;2023-05-21T07:50:03;9.15;;;3.97;;
30515;SDS011;17297;54.022;10.760;2023-05-21T07:52:30;7.97;;;5.10;;
30515;SDS011;17297;54.022;10.760;2023-05-21T07:54:55;7.18;;;4.22;;
30515;SDS011;17297;54.022;10.760;2023-05-21T07:57:22;9.38;;;4.22;;
30515;SDS011;17297;54.022;10.760;2023-05-21T07:59:57;6.32;;;3.88;;
30515;SDS011;17297;54.022;10.760;2023-05-21T08:02:23;6.93;;;3.70;;
30515;SDS011;17297;54.022;10.760;2023-05-21T08:04:49;7.20;;;4.18;;
30515;SDS011;17297;54.022;10.760;2023-05-21T08:07:14;9.50;;;5.30;;
30515;SDS011;17297;54.022;10.760;2023-05-21T08:09:43;8.30;;;5.22;;
30515;SDS011;17297;54.022;10.760;2023-05-21T08:12:09;8.00;;;4.88;;
30515;SDS011;17297;54.022;10.760;2023-05-21T08:14:38;8.63;;;4.20;;
30515;SDS011;17297;54.022;10.760;2023-05-21T08:17:04;6.72;;;4.05;;
30515;SDS011;17297;54.022;10.760;2023-05-21T08:19:29;5.40;;;4.88;;
30515;SDS011;17297;54.022;10.760;2023-05-21T08:21:55;7.50;;;4.85;;
30515;SDS011;17297;54.022;10.760;2023-05-21T08:24:21;6.32;;;4.00;;
30515;SDS011;17297;54.022;10.760;2023-05-21T08:26:47;11.38;;;4.82;;
30515;SDS011;17297;54.022;10.760;2023-05-21T08:29:14;6.65;;;4.55;;
30515;SDS011;17297;54.022;10.760;2023-05-21T08:31:39;8.02;;;4.70;;
30515;SDS011;17297;54.022;10.760;2023-05-21T08:34:05;9.35;;;5.40;;
30515;SDS011;17297;54.022;10.760;2023-05-21T08:36:39;7.85;;;4.57;;
30515;SDS011;17297;54.022;10.760;2023-05-21T08:39:16;9.95;;;4.47;;
30515;SDS011;17297;54.022;10.760;2023-05-21T08:41:42;7.13;;;4.75;;
30515;SDS011;17297;54.022;10.760;2023-05-21T08:44:13;9.38;;;5.30;;
30515;SDS011;17297;54.022;10.760;2023-05-21T08:46:40;6.78;;;4.45;;
30515;SDS011;17297;54.022;10.760;2023-05-21T08:49:10;7.20;;;4.63;;
30515;SDS011;17297;54.022;10.760;2023-05-21T08:51:37;8.82;;;5.15;;
30515;SDS011;17297;54.022;10.760;2023-05-21T08:54:03;10.45;;;4.55;;
30515;SDS011;17297;54.022;10.760;2023-05-21T08:56:32;8.45;;;5.43;;
30515;SDS011;17297;54.022;10.760;2023-05-21T08:58:58;9.27;;;4.60;;
30515;SDS011;17297;54.022;10.760;2023-05-21T09:01:30;8.45;;;4.57;;
30515;SDS011;17297;54.022;10.760;2023-05-21T09:04:04;11.30;;;5.38;;
30515;SDS011;17297;54.022;10.760;2023-05-21T09:06:29;12.00;;;5.40;;
30515;SDS011;17297;54.022;10.760;2023-05-21T09:09:13;9.60;;;5.95;;
30515;SDS011;17297;54.022;10.760;2023-05-21T09:11:48;11.48;;;4.97;;
30515;SDS011;17297;54.022;10.760;2023-05-21T09:14:13;8.38;;;5.13;;
30515;SDS011;17297;54.022;10.760;2023-05-21T09:17:06;8.65;;;4.80;;
30515;SDS011;17297;54.022;10.760;2023-05-21T09:19:32;11.80;;;5.63;;
30515;SDS011;17297;54.022;10.760;2023-05-21T09:22:01;8.35;;;4.70;;
30515;SDS011;17297;54.022;10.760;2023-05-21T09:24:31;8.40;;;4.93;;
30515;SDS011;17297;54.022;10.760;2023-05-21T09:26:57;10.40;;;5.05;;
30515;SDS011;17297;54.022;10.760;2023-05-21T09:29:23;9.60;;;4.93;;
30515;SDS011;17297;54.022;10.760;2023-05-21T09:31:50;11.35;;;5.18;;
30515;SDS011;17297;54.022;10.760;2023-05-21T09:34:16;9.15;;;5.13;;
30515;SDS011;17297;54.022;10.760;2023-05-21T09:36:44;9.95;;;4.43;;
30515;SDS011;17297;54.022;10.760;2023-05-21T09:39:10;9.50;;;5.57;;
30515;SDS011;17297;54.022;10.760;2023-05-21T09:41:40;7.28;;;4.15;;
30515;SDS011;17297;54.022;10.760;2023-05-21T09:44:06;11.32;;;4.75;;
30515;SDS011;17297;54.022;10.760;2023-05-21T09:46:38;19.15;;;5.97;;
30515;SDS011;17297;54.022;10.760;2023-05-21T09:49:04;7.28;;;4.43;;
30515;SDS011;17297;54.022;10.760;2023-05-21T09:51:30;8.13;;;4.03;;
30515;SDS011;17297;54.022;10.760;2023-05-21T09:53:56;8.13;;;3.70;;
30515;SDS011;17297;54.022;10.760;2023-05-21T09:56:22;7.88;;;3.92;;
30515;SDS011;17297;54.022;10.760;2023-05-21T09:58:52;9.27;;;4.90;;
30515;SDS011;17297;54.022;10.760;2023-05-21T10:01:19;10.20;;;4.15;;
30515;SDS011;17297;54.022;10.760;2023-05-21T10:03:45;9.43;;;5.22;;
30515;SDS011;17297;54.022;10.760;2023-05-21T10:06:14;13.27;;;5.15;;
30515;SDS011;17297;54.022;10.760;2023-05-21T10:08:43;11.25;;;5.45;;
30515;SDS011;17297;54.022;10.760;2023-05-21T10:11:09;7.07;;;4.35;;
30515;SDS011;17297;54.022;10.760;2023-05-21T10:13:37;7.90;;;5.25;;
30515;SDS011;17297;54.022;10.760;2023-05-21T10:16:07;14.75;;;5.75;;
30515;SDS011;17297;54.022;10.760;2023-05-21T10:18:33;10.02;;;4.93;;
30515;SDS011;17297;54.022;10.760;2023-05-21T10:21:01;9.80;;;5.88;;
30515;SDS011;17297;54.022;10.760;2023-05-21T10:23:27;14.35;;;5.03;;
30515;SDS011;17297;54.022;10.760;2023-05-21T10:25:54;10.65;;;4.78;;
30515;SDS011;17297;54.022;10.760;2023-05-21T10:28:20;11.23;;;5.10;;
30515;SDS011;17297;54.022;10.760;2023-05-21T10:30:46;14.43;;;5.78;;
30515;SDS011;17297;54.022;10.760;2023-05-21T10:33:12;9.02;;;5.10;;
30515;SDS011;17297;54.022;10.760;2023-05-21T10:35:40;9.55;;;4.72;;
30515;SDS011;17297;54.022;10.760;2023-05-21T10:38:07;14.98;;;6.90;;
30515;SDS011;17297;54.022;10.760;2023-05-21T10:40:33;15.65;;;7.97;;
30515;SDS011;17297;54.022;10.760;2023-05-21T10:51:27;8.98;;;4.88;;
30515;SDS011;17297;54.022;10.760;2023-05-21T10:54:07;13.32;;;5.03;;
30515;SDS011;17297;54.022;10.760;2023-05-21T10:57:08;12.60;;;6.32;;
30515;SDS011;17297;54.022;10.760;2023-05-21T10:59:57;14.90;;;6.40;;
30515;SDS011;17297;54.022;10.760;2023-05-21T11:02:25;13.48;;;5.68;;
30515;SDS011;17297;54.022;10.760;2023-05-21T11:04:57;9.55;;;5.13;;
30515;SDS011;17297;54.022;10.760;2023-05-21T11:07:29;7.70;;;5.45;;
30515;SDS011;17297;54.022;10.760;2023-05-21T11:13:03;11.85;;;5.50;;
30515;SDS011;17297;54.022;10.760;2023-05-21T11:15:51;7.85;;;5.55;;
30515;SDS011;17297;54.022;10.760;2023-05-21T11:19:15;11.95;;;5.93;;
30515;SDS011;17297;54.022;10.760;2023-05-21T11:21:14;11.50;;;6.35;;
30515;SDS011;17297;54.022;10.760;2023-05-21T11:26:16;7.43;;;5.03;;
30515;SDS011;17297;54.022;10.760;2023-05-21T11:28:42;9.55;;;5.55;;
30515;SDS011;17297;54.022;10.760;2023-05-21T11:36:43;8.05;;;5.32;;
30515;SDS011;17297;54.022;10.760;2023-05-21T11:39:12;12.88;;;5.55;;
30515;SDS011;17297;54.022;10.760;2023-05-21T11:44:38;10.32;;;5.55;;
30515;SDS011;17297;54.022;10.760;2023-05-21T11:47:04;6.65;;;4.97;;
30515;SDS011;17297;54.022;10.760;2023-05-21T11:49:31;10.13;;;5.18;;
30515;SDS011;17297;54.022;10.760;2023-05-21T11:51:58;9.73;;;4.25;;
30515;SDS011;17297;54.022;10.760;2023-05-21T11:54:24;10.98;;;5.40;;
30515;SDS011;17297;54.022;10.760;2023-05-21T11:56:50;9.38;;;5.93;;
30515;SDS011;17297;54.022;10.760;2023-05-21T11:59:18;8.98;;;5.85;;
30515;SDS011;17297;54.022;10.760;2023-05-21T12:01:43;10.15;;;4.72;;
30515;SDS011;17297;54.022;10.760;2023-05-21T12:04:09;9.00;;;4.55;;
30515;SDS011;17297;54.022;10.760;2023-05-21T12:06:37;9.40;;;4.75;;
30515;SDS011;17297;54.022;10.760;2023-05-21T12:09:06;10.07;;;4.75;;
30515;SDS011;17297;54.022;10.760;2023-05-21T12:11:34;8.52;;;4.88;;
30515;SDS011;17297;54.022;10.760;2023-05-21T12:14:00;14.13;;;5.43;;
30515;SDS011;17297;54.022;10.760;2023-05-21T12:16:25;6.85;;;4.20;;
30515;SDS011;17297;54.022;10.760;2023-05-21T12:18:52;12.23;;;6.15;;
30515;SDS011;17297;54.022;10.760;2023-05-21T12:21:18;11.70;;;5.03;;
30515;SDS011;17297;54.022;10.760;2023-05-21T12:23:43;8.57;;;5.85;;
30515;SDS011;17297;54.022;10.760;2023-05-21T12:26:09;11.73;;;6.32;;
30515;SDS011;17297;54.022;10.760;2023-05-21T12:28:34;10.15;;;6.65;;
30515;SDS011;17297;54.022;10.760;2023-05-21T12:31:00;7.45;;;5.32;;
30515;SDS011;17297;54.022;10.760;2023-05-21T12:33:32;10.82;;;5.93;;
30515;SDS011;17297;54.022;10.760;2023-05-21T12:35:58;8.77;;;5.68;;
30515;SDS011;17297;54.022;10.760;2023-05-21T12:38:28;14.95;;;6.05;;
30515;SDS011;17297;54.022;10.760;2023-05-21T12:40:55;10.32;;;6.38;;
30515;SDS011;17297;54.022;10.760;2023-05-21T12:43:20;12.07;;;6.07;;
30515;SDS011;17297;54.022;10.760;2023-05-21T12:45:45;8.63;;;5.53;;
30515;SDS011;17297;54.022;10.760;2023-05-21T12:48:11;11.38;;;6.47;;
30515;SDS011;17297;54.022;10.760;2023-05-21T12:50:39;15.02;;;7.00;;
30515;SDS011;17297;54.022;10.760;2023-05-21T12:53:07;9.55;;;5.75;;
30515;SDS011;17297;54.022;10.760;2023-05-21T12:55:35;10.07;;;4.82;;
30515;SDS011;17297;54.022;10.760;2023-05-21T12:58:01;13.57;;;6.22;;
30515;SDS011;17297;54.022;10.760;2023-05-21T13:00:28;11.48;;;5.72;;
30515;SDS011;17297;54.022;10.760;2023-05-21T13:02:54;12.30;;;6.00;;
30515;SDS011;17297;54.022;10.760;2023-05-21T13:05:20;9.82;;;5.75;;
30515;SDS011;17297;54.022;10.760;2023-05-21T13:07:45;8.23;;;5.07;;
30515;SDS011;17297;54.022;10.760;2023-05-21T13:10:11;11.43;;;6.03;;
30515;SDS011;17297;54.022;10.760;2023-05-21T13:12:37;11.23;;;5.32;;
30515;SDS011;17297;54.022;10.760;2023-05-21T13:15:03;9.18;;;4.90;;
30515;SDS011;17297;54.022;10.760;2023-05-21T13:17:31;7.78;;;5.30;;
30515;SDS011;17297;54.022;10.760;2023-05-21T13:20:07;5.85;;;5.20;;
30515;SDS011;17297;54.022;10.760;2023-05-21T13:22:43;9.60;;;5.47;;
30515;SDS011;17297;54.022;10.760;2023-05-21T13:25:11;6.47;;;4.10;;
30515;SDS011;17297;54.022;10.760;2023-05-21T13:27:39;7.53;;;4.70;;
30515;SDS011;17297;54.022;10.760;2023-05-21T13:30:05;6.28;;;3.95;;
30515;SDS011;17297;54.022;10.760;2023-05-21T13:32:32;4.82;;;3.50;;
30515;SDS011;17297;54.022;10.760;2023-05-21T13:34:57;5.20;;;3.65;;
30515;SDS011;17297;54.022;10.760;2023-05-21T13:37:22;5.80;;;3.42;;
30515;SDS011;17297;54.022;10.760;2023-05-21T13:39:48;7.55;;;5.10;;
30515;SDS011;17297;54.022;10.760;2023-05-21T13:42:13;5.57;;;3.97;;
30515;SDS011;17297;54.022;10.760;2023-05-21T13:44:39;6.35;;;4.38;;
30515;SDS011;17297;54.022;10.760;2023-05-21T13:47:04;9.23;;;5.20;;
30515;SDS011;17297;54.022;10.760;2023-05-21T13:49:31;7.00;;;4.38;;
30515;SDS011;17297;54.022;10.760;2023-05-21T13:51:57;5.15;;;4.03;;
30515;SDS011;17297;54.022;10.760;2023-05-21T13:54:24;5.00;;;3.92;;
30515;SDS011;17297;54.022;10.760;2023-05-21T13:56:49;8.48;;;4.88;;
30515;SDS011;17297;54.022;10.760;2023-05-21T13:59:15;4.97;;;4.13;;
30515;SDS011;17297;54.022;10.760;2023-05-21T14:01:40;6.63;;;5.10;;
30515;SDS011;17297;54.022;10.760;2023-05-21T14:04:05;7.63;;;5.00;;
30515;SDS011;17297;54.022;10.760;2023-05-21T14:06:32;6.93;;;4.75;;
30515;SDS011;17297;54.022;10.760;2023-05-21T14:08:58;5.78;;;4.28;;
30515;SDS011;17297;54.022;10.760;2023-05-21T14:11:24;5.57;;;4.30;;
30515;SDS011;17297;54.022;10.760;2023-05-21T14:13:50;10.60;;;5.38;;
30515;SDS011;17297;54.022;10.760;2023-05-21T14:16:16;9.25;;;4.55;;
30515;SDS011;17297;54.022;10.760;2023-05-21T14:18:42;5.90;;;4.60;;
30515;SDS011;17297;54.022;10.760;2023-05-21T14:21:07;6.82;;;4.90;;
30515;SDS011;17297;54.022;10.760;2023-05-21T14:23:33;5.45;;;4.28;;
30515;SDS011;17297;54.022;10.760;2023-05-21T14:25:58;6.82;;;4.82;;
30515;SDS011;17297;54.022;10.760;2023-05-21T14:28:23;6.72;;;4.65;;
30515;SDS011;17297;54.022;10.760;2023-05-21T14:30:49;5.70;;;4.78;;
30515;SDS011;17297;54.022;10.760;2023-05-21T14:33:14;7.60;;;4.47;;
30515;SDS011;17297;54.022;10.760;2023-05-21T14:35:40;6.47;;;4.28;;
30515;SDS011;17297;54.022;10.760;2023-05-21T14:38:07;7.68;;;5.10;;
30515;SDS011;17297;54.022;10.760;2023-05-21T14:40:33;8.00;;;6.32;;
30515;SDS011;17297;54.022;10.760;2023-05-21T14:42:58;5.35;;;4.72;;
30515;SDS011;17297;54.022;10.760;2023-05-21T14:45:23;8.45;;;4.85;;
30515;SDS011;17297;54.022;10.760;2023-05-21T14:47:49;6.63;;;4.85;;
30515;SDS011;17297;54.022;10.760;2023-05-21T14:50:14;6.57;;;5.65;;
30515;SDS011;17297;54.022;10.760;2023-05-21T14:52:40;8.13;;;5.40;;
30515;SDS011;17297;54.022;10.760;2023-05-21T14:55:07;9.80;;;6.13;;
30515;SDS011;17297;54.022;10.760;2023-05-21T14:57:32;12.57;;;6.80;;